Latest Coastal Weather Observations for Creal Reef

IDQ60701

Issued at 9:12 am EST Sunday 22 October 2017 (issued every 10 minutes, with the page automatically refreshed every 10 minutes)

About coastal observations | Map of coastal stations | Coastal observations for QLD | Marine services | Other Formats
Station Details ID: 200736 Name: CREAL REEF Lat: -20.53 Lon: 150.38 Height: 1.7 m
Data from the previous 72 hours. | See also: Recent months for locations in Queensland
Date/Time
EST
Temp
°C
Wind Pressure Rain since
9am
mm
Weather Cloud Vis
km
Sea
Height
m
Swell
Dir  Spd
kts
Gust
kts
hPa Trend Height
m
Period
s
Dir
22/09:00am 24.0 SSW 9 11 1011.9 - - - - - - - - -
22/08:30am 23.8 SSW 10 12 1011.8 - - - - - - - - -
22/08:20am 23.6 SSW 11 - 1011.8 - - - - - - - - -
22/08:00am 24.1 S 8 9 1011.7 - - - - - - - - -
22/07:30am 24.4 S 5 6 1011.4 - - - - - - - - -
22/07:20am 24.6 SSE 5 - 1011.3 - - - - - - - - -
22/07:00am 24.1 S 6 7 1011.2 - - - - - - - - -
22/06:30am 23.6 SSE 5 6 1011.1 - - - - - - - - -
22/06:20am 23.4 SE 7 - 1010.9 - - - - - - - - -
22/06:00am 23.3 S 7 9 1010.4 - - - - - - - - -
22/05:30am 22.9 S 8 10 1010.4 - - - - - - - - -
22/05:20am 23.1 S 10 - 1010.3 - - - - - - - - -
22/05:00am 23.7 SSE 7 8 1010.3 - - - - - - - - -
22/04:30am 23.9 S 5 6 1010.2 - - - - - - - - -
22/04:20am 23.9 SSE 6 - 1010.2 - - - - - - - - -
22/04:00am 23.8 SSE 7 8 1010.0 - - - - - - - - -
22/03:30am 23.7 SSE 5 5 1009.9 - - - - - - - - -
22/03:20am 23.8 SE 5 - 1009.8 - - - - - - - - -
22/03:00am 23.6 SE 5 6 1010.0 - - - - - - - - -
22/02:30am 23.5 SSE 7 9 1010.1 - - - - - - - - -
22/02:20am 23.5 SSE 7 - 1010.2 - - - - - - - - -
22/02:00am 23.5 SSE 8 9 1010.5 - - - - - - - - -
22/01:30am 23.9 S 3 5 1010.9 - - - - - - - - -
22/01:20am 23.9 S 3 - 1010.7 - - - - - - - - -
22/01:00am 23.9 CALM 0 1 1011.1 - - - - - - - - -
22/12:30am 24.0 SE 2 4 1011.7 - - - - - - - - -
22/12:20am 23.9 ESE 1 - 1011.4 - - - - - - - - -
22/12:00am 23.9 CALM 0 0 1011.8 - - - - - - - - -
 
Date/Time
EST
Temp
°C
Wind Pressure Rain since
9am
mm
Weather Cloud Vis
km
Sea
Height
m
Swell
Dir  Spd
kts
Gust
kts
hPa Trend Height
m
Period
s
Dir
21/11:30pm 23.9 E 4 6 1011.7 - - - - - - - - -
21/11:20pm 23.9 ESE 3 - 1012.0 - - - - - - - - -
21/11:00pm 23.9 E 5 7 1012.0 - - - - - - - - -
21/10:30pm 24.1 ESE 3 5 1012.4 - - - - - - - - -
21/10:20pm 24.0 SE 2 - 1012.8 - - - - - - - - -
21/10:00pm 24.1 E 5 7 1012.5 - - - - - - - - -
21/09:30pm 24.1 ESE 5 7 1012.5 - - - - - - - - -
21/09:20pm 24.2 SE 5 - 1012.4 - - - - - - - - -
21/09:00pm 24.2 SE 3 4 1012.6 - - - - - - - - -
21/08:30pm 24.1 SE 3 4 1012.8 - - - - - - - - -
21/08:20pm 24.4 ESE 2 - 1012.6 - - - - - - - - -
21/08:00pm 24.4 ESE 4 5 1012.3 - - - - - - - - -
21/07:30pm 24.6 E 6 7 1011.8 - - - - - - - - -
21/07:20pm 24.6 E 5 - 1011.8 - - - - - - - - -
21/07:00pm 24.6 ESE 5 7 1011.8 - - - - - - - - -
21/06:30pm 24.6 SE 4 6 1011.8 - - - - - - - - -
21/06:20pm 24.7 SSE 4 - 1011.7 - - - - - - - - -
21/06:00pm 24.7 S 5 6 1011.8 - - - - - - - - -
21/05:30pm 24.7 S 6 8 1011.6 - - - - - - - - -
21/05:20pm 24.8 S 6 - 1011.5 - - - - - - - - -
21/05:00pm 24.7 S 7 8 1011.4 - - - - - - - - -
21/04:30pm 24.7 SSE 5 8 1011.3 - - - - - - - - -
21/04:20pm 24.7 SE 5 - 1011.1 - - - - - - - - -
21/04:00pm 24.8 SSE 6 7 1011.1 - - - - - - - - -
21/03:30pm 24.7 SE 5 7 1011.2 - - - - - - - - -
21/03:20pm 24.8 SSE 5 - 1011.2 - - - - - - - - -
21/03:00pm 25.0 SSE 5 6 1011.5 - - - - - - - - -
21/02:30pm 24.9 S 5 6 1011.7 - - - - - - - - -
21/02:20pm 24.9 SSE 4 - 1011.6 - - - - - - - - -
21/02:00pm 24.9 SE 4 6 1011.7 - - - - - - - - -
21/01:30pm 24.9 SSE 4 6 1012.1 - - - - - - - - -
21/01:20pm 25.1 SSE 3 - 1012.1 - - - - - - - - -
21/01:00pm 24.9 SE 5 6 1012.4 - - - - - - - - -
21/12:30pm 26.0 CALM 0 0 1012.9 - - - - - - - - -
21/12:20pm 25.5 CALM 0 - 1012.9 - - - - - - - - -
21/12:00pm 26.4 CALM 0 3 1013.3 - - - - - - - - -
21/11:30am 25.7 CALM 0 0 1013.7 - - - - - - - - -
21/11:20am 25.3 CALM 0 - 1013.7 - - - - - - - - -
21/11:00am 26.2 CALM 0 0 1014.1 - - - - - - - - -
21/10:30am 25.1 CALM 0 2 1014.1 - - - - - - - - -
21/10:20am 25.0 ENE 2 - 1014.0 - - - - - - - - -
21/10:00am 25.0 E 4 6 1014.2 - - - - - - - - -
21/09:30am 24.9 E 5 6 1014.2 - - - - - - - - -
21/09:20am 24.9 E 5 - 1014.1 - - - - - - - - -
21/09:00am 24.6 ESE 6 7 1014.2 - - - - - - - - -
21/08:30am 24.8 E 7 8 1014.1 - - - - - - - - -
21/08:20am 24.7 E 6 - 1013.9 - - - - - - - - -
21/08:00am 24.7 E 7 8 1014.0 - - - - - - - - -
21/07:30am 24.8 E 7 8 1014.0 - - - - - - - - -
21/07:20am 24.8 E 6 - 1013.9 - - - - - - - - -
21/07:00am 24.7 E 7 8 1013.9 - - - - - - - - -
21/06:30am 24.7 ESE 6 8 1013.8 - - - - - - - - -
21/06:20am 24.6 E 7 - 1013.5 - - - - - - - - -
21/06:00am 24.2 SE 7 8 1013.6 - - - - - - - - -
21/05:30am 24.0 ESE 6 7 1013.5 - - - - - - - - -
21/05:20am 24.0 E 6 - 1013.4 - - - - - - - - -
21/05:00am 24.0 E 7 8 1013.5 - - - - - - - - -
21/04:30am 24.1 E 7 8 1013.4 - - - - - - - - -
21/04:20am 24.1 E 8 - 1013.4 - - - - - - - - -
21/04:00am 24.1 E 8 9 1013.5 - - - - - - - - -
21/03:30am 24.0 E 8 10 1013.4 - - - - - - - - -
21/03:20am 24.1 E 9 - 1013.3 - - - - - - - - -
21/03:00am 24.0 E 9 12 1013.4 - - - - - - - - -
21/02:30am 24.1 E 10 13 1013.6 - - - - - - - - -
21/02:20am 24.2 E 10 - 1013.7 - - - - - - - - -
21/02:00am 24.1 E 11 14 1013.9 - - - - - - - - -
21/01:30am 24.2 E 13 15 1014.0 - - - - - - - - -
21/01:20am 24.2 ESE 11 - 1013.9 - - - - - - - - -
21/01:00am 24.1 E 12 14 1014.2 - - - - - - - - -
21/12:30am 24.3 E 14 16 1014.3 - - - - - - - - -
21/12:20am 24.2 ESE 15 - 1014.3 - - - - - - - - -
21/12:00am 24.2 ESE 14 16 1014.7 - - - - - - - - -
 
Date/Time
EST
Temp
°C
Wind Pressure Rain since
9am
mm
Weather Cloud Vis
km
Sea
Height
m
Swell
Dir  Spd
kts
Gust
kts
hPa Trend Height
m
Period
s
Dir
20/11:30pm 24.2 ESE 14 16 1015.3 - - - - - - - - -
20/11:20pm 24.1 ESE 14 - 1015.2 - - - - - - - - -
20/11:00pm 24.4 ESE 14 16 1015.6 - - - - - - - - -
20/10:30pm 24.4 ESE 14 16 1015.8 - - - - - - - - -
20/10:20pm 24.3 ESE 15 - 1015.7 - - - - - - - - -
20/10:00pm 24.3 ESE 16 17 1015.8 - - - - - - - - -
20/09:30pm 24.4 ESE 15 19 1015.9 - - - - - - - - -
20/09:20pm 24.4 ESE 16 - 1015.8 - - - - - - - - -
20/09:00pm 24.3 ESE 16 18 1015.9 - - - - - - - - -
20/08:30pm 24.5 ESE 16 19 1015.8 - - - - - - - - -
20/08:20pm 24.4 SE 16 - 1015.7 - - - - - - - - -
20/08:00pm 24.4 SE 17 19 1015.6 - - - - - - - - -
20/07:30pm 24.3 SE 17 19 1015.8 - - - - - - - - -
20/07:20pm 24.5 SE 16 - 1015.7 - - - - - - - - -
20/07:00pm 24.4 SE 16 19 1015.8 - - - - - - - - -
20/06:30pm 24.5 SE 17 20 1015.7 - - - - - - - - -
20/06:20pm 24.6 SE 16 - 1015.6 - - - - - - - - -
20/06:00pm 24.6 SE 16 18 1015.6 - - - - - - - - -
20/05:30pm 24.3 SE 17 20 1015.5 - - - - - - - - -
20/05:20pm 24.7 SE 14 - 1015.3 - - - - - - - - -
20/05:00pm 24.7 SE 14 17 1015.3 - - - - - - - - -
20/04:30pm 24.8 ESE 12 15 1015.2 - - - - - - - - -
20/04:20pm 24.6 E 11 - 1015.1 - - - - - - - - -
20/04:00pm 24.8 ESE 12 14 1015.1 - - - - - - - - -
20/03:30pm 24.8 SE 13 14 1015.0 - - - - - - - - -
20/03:20pm 24.7 SE 13 - 1014.9 - - - - - - - - -
20/03:00pm 24.7 ESE 13 15 1015.2 - - - - - - - - -
20/02:30pm 24.9 ESE 14 16 1015.4 - - - - - - - - -
20/02:20pm 24.7 SE 14 - 1015.4 - - - - - - - - -
20/02:00pm 24.7 ESE 15 17 1015.7 - - - - - - - - -
20/01:30pm 24.7 ESE 15 17 1016.1 - - - - - - - - -
20/01:20pm 24.7 ESE 16 - 1016.1 - - - - - - - - -
20/01:00pm 24.8 ESE 16 18 1016.3 - - - - - - - - -
20/12:30pm 24.8 ESE 16 18 1016.3 - - - - - - - - -
20/12:20pm 24.6 ESE 16 - 1016.3 - - - - - - - - -
20/12:00pm 24.7 ESE 16 19 1016.8 - - - - - - - - -
20/11:30am 24.7 ESE 18 20 1017.0 - - - - - - - - -
20/11:20am 24.8 ESE 17 - 1016.9 - - - - - - - - -
20/11:00am 24.9 ESE 18 20 1017.2 - - - - - - - - -
20/10:30am 24.9 ESE 17 19 1017.4 - - - - - - - - -
20/10:20am 25.0 ESE 16 - 1017.4 - - - - - - - - -
20/10:00am 24.9 ESE 16 19 1017.9 - - - - - - - - -
20/09:30am 24.8 ESE 16 19 1018.0 - - - - - - - - -
20/09:20am 24.9 ESE 17 - 1017.9 - - - - - - - - -
20/09:00am 24.9 ESE 16 19 1018.1 - - - - - - - - -
20/08:30am 24.0 E 15 20 1018.1 - - - - - - - - -
20/08:20am 23.1 ESE 18 - 1018.1 - - - - - - - - -
20/08:00am 23.8 ESE 15 21 1018.1 - - - - - - - - -
20/07:30am 23.5 ENE 15 17 1017.9 - - - - - - - - -
20/07:26am 23.4 E 15 18 1017.8 - - - - - - - - -
20/07:20am 23.4 E 18 - 1017.6 - - - - - - - - -
20/07:00am 23.0 ESE 21 25 1017.5 - - - - - - - - -
20/06:57am 22.8 ESE 23 25 1017.5 - - - - - - - - -
20/06:30am 23.5 SE 18 22 1017.1 - - - - - - - - -
20/06:20am 23.4 SE 20 - 1016.9 - - - - - - - - -
20/06:18am 23.8 SE 20 22 1016.9 - - - - - - - - -
20/06:00am 23.5 E 19 23 1016.9 - - - - - - - - -
20/05:30am 24.4 ESE 16 19 1016.7 - - - - - - - - -
20/05:20am 24.4 ESE 15 - 1016.5 - - - - - - - - -
20/05:00am 24.3 ESE 17 19 1016.3 - - - - - - - - -
20/04:30am 24.6 ESE 16 19 1016.0 - - - - - - - - -
20/04:20am 24.3 ESE 17 - 1015.9 - - - - - - - - -
20/04:00am 24.5 ESE 17 19 1016.0 - - - - - - - - -
20/03:30am 24.5 ESE 19 23 1015.7 - - - - - - - - -
20/03:20am 24.4 ESE 19 - 1015.6 - - - - - - - - -
20/03:00am 24.7 ESE 20 23 1015.9 - - - - - - - - -
20/02:30am 24.6 ESE 21 25 1016.0 - - - - - - - - -
20/02:20am 24.6 ESE 22 - 1015.9 - - - - - - - - -
20/02:00am 24.6 ESE 22 25 1016.2 - - - - - - - - -
20/01:30am 24.8 ESE 20 24 1016.2 - - - - - - - - -
20/01:20am 24.6 ESE 20 - 1016.2 - - - - - - - - -
20/01:00am 24.2 ESE 22 27 1016.7 - - - - - - - - -
20/12:30am 24.9 ESE 22 26 1017.0 - - - - - - - - -
20/12:20am 24.6 ESE 21 - 1017.0 - - - - - - - - -
20/12:00am 24.4 ESE 16 19 1017.4 - - - - - - - - -
 
Date/Time
EST
Temp
°C
Wind Pressure Rain since
9am
mm
Weather Cloud Vis
km
Sea
Height
m
Swell
Dir  Spd
kts
Gust
kts
hPa Trend Height
m
Period
s
Dir
19/11:30pm 24.8 ESE 22 25 1017.7 - - - - - - - - -
19/11:20pm 24.8 ESE 22 - 1017.7 - - - - - - - - -
19/11:00pm 24.6 SE 22 28 1018.1 - - - - - - - - -
19/10:30pm 25.0 ESE 21 27 1018.3 - - - - - - - - -
19/10:20pm 25.0 ESE 23 - 1018.3 - - - - - - - - -
19/10:00pm 24.7 ESE 23 27 1018.6 - - - - - - - - -
19/09:41pm 24.0 SE 23 27 1018.4 - - - - - - - - -
19/09:30pm 23.7 E 19 21 1018.5 - - - - - - - - -
19/09:20pm 23.4 E 20 - 1018.5 - - - - - - - - -
19/09:00pm 24.0 E 21 25 1018.4 - - - - - - - - -
19/08:30pm 24.5 ESE 22 25 1017.9 - - - - - - - - -
19/08:20pm 24.9 ESE 21 - 1017.8 - - - - - - - - -
19/08:00pm 24.7 ESE 20 24 1017.7 - - - - - - - - -
19/07:30pm 25.0 E 19 24 1017.6 - - - - - - - - -
19/07:20pm 25.1 E 21 - 1017.6 - - - - - - - - -
19/07:00pm 25.1 E 22 25 1017.5 - - - - - - - - -
19/06:30pm 25.0 ESE 21 25 1017.3 - - - - - - - - -
19/06:20pm 25.3 E 23 - 1017.0 - - - - - - - - -
19/06:00pm 25.1 ESE 23 28 1017.0 - - - - - - - - -
19/05:30pm 25.1 ESE 24 27 1016.5 - - - - - - - - -
19/05:20pm 25.1 E 24 - 1016.3 - - - - - - - - -
19/05:00pm 25.2 E 24 26 1016.2 - - - - - - - - -
19/04:30pm 25.2 E 25 29 1015.9 - - - - - - - - -
19/04:20pm 25.3 ESE 23 - 1015.7 - - - - - - - - -
19/04:00pm 25.4 E 25 29 1015.6 - - - - - - - - -
19/03:30pm 25.3 ESE 24 28 1015.4 - - - - - - - - -
19/03:20pm 25.2 ESE 24 - 1015.2 - - - - - - - - -
19/03:00pm 24.9 ESE 24 27 1015.4 - - - - - - - - -
19/02:30pm 24.9 ESE 24 30 1015.7 - - - - - - - - -
19/02:20pm 24.6 ESE 26 - 1015.6 - - - - - - - - -
19/02:00pm 25.5 E 24 28 1015.9 - - - - - - - - -
19/01:30pm 25.1 ESE 22 25 1016.4 - - - - - - - - -
19/01:20pm 25.1 E 22 - 1016.3 - - - - - - - - -
19/01:00pm 25.1 E 23 28 1016.7 - - - - - - - - -
19/12:30pm 25.4 E 22 26 1016.7 - - - - - - - - -
19/12:20pm 25.2 E 21 - 1016.9 - - - - - - - - -
19/12:00pm 25.0 E 23 27 1016.9 - - - - - - - - -
19/11:30am 25.3 E 22 25 1016.8 - - - - - - - - -
19/11:20am 25.2 ESE 19 - 1016.7 - - - - - - - - -
19/11:00am 25.1 ESE 21 24 1017.2 - - - - - - - - -
19/10:30am 25.3 E 21 26 1017.1 - - - - - - - - -
19/10:20am 25.4 E 22 - 1016.8 - - - - - - - - -
19/10:00am 24.5 ESE 21 25 1017.1 - - - - - - - - -
19/09:30am 25.4 E 20 23 1017.5 - - - - - - - - -
19/09:20am 25.5 E 21 - 1017.3 - - - - - - - - -

Other Formats:

Comma delimited format used in spreadsheet applications
http://www.bom.gov.au/fwo/IDQ60701/IDQ60701.94371.axf

JavaScript Object Notation format (JSON) in row-major order
http://www.bom.gov.au/fwo/IDQ60701/IDQ60701.94371.json